Time;durP1;ratioP1;P1;durP2;ratioP2;P2;SDS_P1;SDS_P2;PMS_P1;PMS_P2;Temp;Humidity;BMP_temperature;BMP_pressure;BME280_temperature;BME280_humidity;BME280_pressure;Samples;Min_cycle;Max_cycle;Signal;HPM_P1;HPM_P2
2023/01/04 00:00:00;;;;;;;10.23;9.23;;;6.30;99.90;;;;;;5113224;28;20984;-55
2023/01/04 00:02:28;;;;;;;9.70;8.20;;;6.20;99.90;;;;;;5111111;28;20537;-55
2023/01/04 00:04:55;;;;;;;9.77;8.73;;;6.10;99.90;;;;;;5113102;28;20442;-55
2023/01/04 00:07:24;;;;;;;9.37;8.47;;;6.00;99.90;;;;;;5113244;28;20454;-55
2023/01/04 00:09:51;;;;;;;9.47;8.50;;;6.10;99.90;;;;;;5110628;28;20973;-55
2023/01/04 00:12:18;;;;;;;9.77;8.63;;;6.00;99.90;;;;;;5112863;28;20794;-55
2023/01/04 00:14:45;;;;;;;10.90;9.37;;;6.00;99.90;;;;;;5113035;28;20426;-55
2023/01/04 00:17:12;;;;;;;10.47;8.50;;;6.00;99.90;;;;;;5110919;28;20451;-55
2023/01/04 00:19:39;;;;;;;10.13;8.80;;;6.10;99.90;;;;;;5113016;28;20490;-55
2023/01/04 00:22:07;;;;;;;8.63;7.83;;;6.10;99.90;;;;;;5114787;28;20438;-54
2023/01/04 00:24:35;;;;;;;10.10;8.57;;;5.90;99.90;;;;;;5114885;28;20446;-54
2023/01/04 00:27:02;;;;;;;14.43;9.97;;;5.80;99.90;;;;;;5116536;28;20453;-54
2023/01/04 00:29:29;;;;;;;11.53;9.30;;;5.80;99.90;;;;;;5116892;28;20453;-56
2023/01/04 00:31:57;;;;;;;9.43;8.53;;;5.70;99.90;;;;;;5114919;28;20865;-54
2023/01/04 00:34:24;;;;;;;10.57;8.83;;;5.80;99.90;;;;;;5116988;28;20469;-56
2023/01/04 00:36:51;;;;;;;10.60;9.50;;;5.70;99.90;;;;;;5116778;28;20529;-54
2023/01/04 00:39:18;;;;;;;8.17;7.37;;;5.80;99.90;;;;;;5114356;28;20456;-54
2023/01/04 00:41:49;;;;;;;9.60;8.70;;;5.80;99.90;;;;;;5116673;28;20485;-55
2023/01/04 00:44:16;;;;;;;9.13;8.23;;;5.80;99.90;;;;;;5116292;28;20800;-54
2023/01/04 00:46:44;;;;;;;9.80;8.80;;;5.80;99.90;;;;;;5114129;28;20890;-54
2023/01/04 00:49:12;;;;;;;10.30;9.20;;;5.80;99.90;;;;;;5116728;28;20571;-56
2023/01/04 00:51:41;;;;;;;12.40;8.83;;;5.80;99.90;;;;;;5116193;28;20466;-55
2023/01/04 00:54:12;;;;;;;9.13;8.23;;;5.70;99.90;;;;;;5114280;28;21060;-54
2023/01/04 00:56:39;;;;;;;9.80;8.70;;;5.60;99.90;;;;;;5115760;28;20818;-54
2023/01/04 00:59:08;;;;;;;7.97;7.17;;;5.60;99.90;;;;;;5115968;28;20434;-54
2023/01/04 01:01:36;;;;;;;9.80;8.47;;;5.70;99.90;;;;;;5114258;28;20477;-54
2023/01/04 01:04:04;;;;;;;8.23;7.43;;;5.70;99.90;;;;;;5116646;28;20449;-54
2023/01/04 01:06:33;;;;;;;8.20;7.50;;;5.70;99.90;;;;;;5115698;28;20461;-54
2023/01/04 01:09:01;;;;;;;8.67;7.83;;;5.70;99.90;;;;;;5114477;28;20812;-54
2023/01/04 01:11:29;;;;;;;8.57;7.77;;;5.60;99.90;;;;;;5116074;28;20469;-54
2023/01/04 01:13:57;;;;;;;9.13;8.03;;;5.70;99.90;;;;;;5116067;28;20449;-54
2023/01/04 01:16:26;;;;;;;9.80;8.80;;;5.70;99.90;;;;;;5113911;28;20446;-55
2023/01/04 01:18:54;;;;;;;8.10;7.30;;;5.60;99.90;;;;;;5115501;28;20470;-56
2023/01/04 01:21:23;;;;;;;8.93;8.13;;;5.60;99.90;;;;;;5115549;28;20986;-56
2023/01/04 01:23:51;;;;;;;7.77;6.97;;;5.60;99.90;;;;;;5114182;28;20454;-55
2023/01/04 01:26:21;;;;;;;8.53;7.73;;;5.70;99.90;;;;;;5115199;28;20450;-55
2023/01/04 01:28:49;;;;;;;9.40;7.90;;;5.60;99.90;;;;;;5115298;28;20941;-55
2023/01/04 01:31:17;;;;;;;8.57;7.77;;;5.60;99.90;;;;;;5113740;28;20504;-55
2023/01/04 01:33:47;;;;;;;9.87;8.30;;;5.70;99.90;;;;;;5115065;28;20523;-56
2023/01/04 01:36:16;;;;;;;9.20;8.00;;;5.70;99.90;;;;;;5115425;28;20447;-55
2023/01/04 01:38:43;;;;;;;8.17;7.37;;;5.70;99.90;;;;;;5114162;28;20552;-59
2023/01/04 01:41:17;;;;;;;7.20;6.50;;;5.70;99.90;;;;;;5115257;28;20968;-55
2023/01/04 01:43:51;;;;;;;9.03;7.57;;;5.70;99.90;;;;;;5113206;28;20433;-55
2023/01/04 01:46:23;;;;;;;9.33;7.40;;;5.60;99.90;;;;;;5115263;28;20462;-55
2023/01/04 01:48:54;;;;;;;9.03;7.70;;;5.70;99.90;;;;;;5115305;28;20423;-55
2023/01/04 01:51:22;;;;;;;7.80;7.00;;;5.70;99.90;;;;;;5113002;28;20463;-56
2023/01/04 01:53:54;;;;;;;8.80;7.90;;;5.70;99.90;;;;;;5114985;28;20547;-55
2023/01/04 01:56:22;;;;;;;9.17;7.37;;;5.60;99.90;;;;;;5114747;28;20924;-56
2023/01/04 01:58:53;;;;;;;8.33;7.33;;;5.70;99.90;;;;;;5112913;28;20454;-55
2023/01/04 02:01:20;;;;;;;10.70;7.00;;;5.60;99.90;;;;;;5114763;28;20980;-55
2023/01/04 02:03:47;;;;;;;7.80;6.97;;;5.60;99.90;;;;;;5115005;28;20541;-55
2023/01/04 02:06:21;;;;;;;8.03;7.23;;;5.60;99.90;;;;;;5112979;28;20820;-55
2023/01/04 02:08:49;;;;;;;7.73;6.90;;;5.60;99.90;;;;;;5115212;28;20451;-55
2023/01/04 02:11:17;;;;;;;8.93;7.27;;;5.50;99.90;;;;;;5114668;28;20462;-55
2023/01/04 02:16:40;;;;;;;10.77;6.50;;;5.60;99.90;;;;;;5114919;28;20414;-55
2023/01/04 02:19:38;;;;;;;8.10;7.30;;;5.60;99.90;;;;;;5114604;28;20422;-55
2023/01/04 02:22:32;;;;;;;6.30;5.80;;;5.70;99.90;;;;;;5112383;28;20992;-55
2023/01/04 02:25:23;;;;;;;5.93;5.43;;;5.70;99.90;;;;;;5114478;28;20487;-55
2023/01/04 02:27:55;;;;;;;7.37;6.10;;;5.70;99.90;;;;;;5097125;28;20455;-55
2023/01/04 02:30:57;;;;;;;6.53;5.87;;;5.80;99.90;;;;;;5112548;28;20474;-55
2023/01/04 02:33:39;;;;;;;8.30;5.80;;;5.80;99.90;;;;;;5114465;28;20418;-55
2023/01/04 02:36:13;;;;;;;6.37;5.77;;;5.90;99.90;;;;;;5112680;28;20422;-55
2023/01/04 02:38:53;;;;;;;6.57;5.60;;;5.90;99.90;;;;;;5114384;28;20510;-56
2023/01/04 02:41:28;;;;;;;6.70;5.40;;;5.90;99.90;;;;;;5114035;28;20488;-56
2023/01/04 02:46:53;;;;;;;5.83;5.33;;;6.00;99.90;;;;;;5113541;28;20972;-55
2023/01/04 02:52:06;;;;;;;5.50;4.93;;;6.00;99.90;;;;;;5112334;28;20541;-55
2023/01/04 02:54:33;;;;;;;7.27;5.80;;;6.00;99.90;;;;;;5113740;28;20422;-55
2023/01/04 02:57:14;;;;;;;4.90;4.50;;;6.00;99.90;;;;;;5113617;28;20945;-54
2023/01/04 03:00:11;;;;;;;5.87;5.37;;;5.90;99.90;;;;;;5112239;28;20469;-54
2023/01/04 03:08:40;;;;;;;5.67;4.73;;;5.80;99.90;;;;;;5113945;28;20437;-55
2023/01/04 03:12:30;;;;;;;5.13;4.70;;;5.80;99.90;;;;;;5113495;28;20462;-55
2023/01/04 03:13:59;;;;;;;6.40;5.50;;;5.80;99.90;;;;;;5111682;28;20423;-55
2023/01/04 03:16:27;;;;;;;5.43;4.87;;;5.80;99.90;;;;;;5113588;28;20446;-55
2023/01/04 03:18:56;;;;;;;4.73;4.20;;;5.80;99.90;;;;;;5113484;28;20950;-55
2023/01/04 03:21:28;;;;;;;5.47;4.33;;;5.80;99.90;;;;;;5111432;28;20482;-55
2023/01/04 03:35:27;;;;;;;5.80;4.77;;;5.80;99.90;;;;;;5086326;28;20586;-55
2023/01/04 03:49:24;;;;;;;6.73;5.20;;;5.70;99.90;;;;;;5113199;28;20405;-55
2023/01/04 03:51:54;;;;;;;8.90;5.50;;;5.70;99.90;;;;;;5110916;28;20952;-55
2023/01/04 03:54:28;;;;;;;5.30;4.80;;;5.60;99.90;;;;;;5113344;28;20450;-54
2023/01/04 03:56:58;;;;;;;6.20;5.60;;;5.60;99.90;;;;;;5114227;28;20451;-55
2023/01/04 03:59:25;;;;;;;4.93;4.50;;;5.70;99.90;;;;;;5116737;28;20749;-55
2023/01/04 04:01:53;;;;;;;4.73;4.33;;;5.70;99.90;;;;;;5117236;28;20987;-55
2023/01/04 04:09:51;;;;;;;4.60;4.17;;;5.80;99.90;;;;;;5117200;28;20441;-54
2023/01/04 04:12:18;;;;;;;4.93;4.53;;;5.80;99.90;;;;;;5115328;28;20453;-55
2023/01/04 04:14:45;;;;;;;4.33;3.93;;;5.90;99.90;;;;;;5116955;28;20435;-55
2023/01/04 04:17:12;;;;;;;4.10;3.80;;;5.90;99.90;;;;;;5117354;28;20519;-55
2023/01/04 04:19:40;;;;;;;4.03;3.63;;;5.90;99.90;;;;;;5114692;28;20473;-55
2023/01/04 04:22:07;;;;;;;4.50;4.10;;;6.00;99.90;;;;;;5117163;28;20583;-55
2023/01/04 04:24:34;;;;;;;4.57;4.17;;;6.10;99.90;;;;;;5117041;28;20491;-55
2023/01/04 04:27:02;;;;;;;4.97;4.30;;;6.10;99.90;;;;;;5114489;28;20500;-55
2023/01/04 04:29:29;;;;;;;3.47;3.17;;;6.10;99.90;;;;;;5117072;28;20774;-55
2023/01/04 04:31:56;;;;;;;3.50;3.20;;;6.20;99.90;;;;;;5117037;28;20438;-55
2023/01/04 04:34:23;;;;;;;3.97;3.30;;;6.20;99.90;;;;;;5114838;28;20446;-56
2023/01/04 04:36:50;;;;;;;3.50;3.20;;;6.20;99.90;;;;;;5116652;28;20845;-56
2023/01/04 04:39:21;;;;;;;5.00;4.20;;;6.20;99.90;;;;;;5116676;28;20457;-55
2023/01/04 04:41:47;;;;;;;5.23;4.83;;;6.20;99.90;;;;;;5114555;28;20486;-56
2023/01/04 04:44:18;;;;;;;3.40;3.10;;;6.20;99.90;;;;;;5116596;28;20475;-55
2023/01/04 04:46:47;;;;;;;4.20;3.30;;;6.20;99.90;;;;;;5116035;28;20430;-55
2023/01/04 04:49:15;;;;;;;3.27;2.97;;;6.30;99.90;;;;;;5113763;28;20446;-56
2023/01/04 04:51:42;;;;;;;3.63;3.33;;;6.30;99.90;;;;;;5116402;28;20560;-56
2023/01/04 04:54:11;;;;;;;3.40;3.10;;;6.20;99.90;;;;;;5116007;28;20978;-56
2023/01/04 04:56:38;;;;;;;4.40;3.30;;;6.20;99.90;;;;;;5113938;28;20933;-56
2023/01/04 04:59:05;;;;;;;3.57;3.27;;;6.30;99.90;;;;;;5116548;28;20447;-56
2023/01/04 05:01:34;;;;;;;3.00;2.70;;;6.40;99.90;;;;;;5116024;28;20475;-56
2023/01/04 05:04:01;;;;;;;3.43;3.13;;;6.40;99.90;;;;;;5114413;28;20450;-55
2023/01/04 05:06:28;;;;;;;2.70;2.50;;;6.50;99.90;;;;;;5116000;28;20462;-55
2023/01/04 05:08:55;;;;;;;3.30;3.00;;;6.50;99.90;;;;;;5115177;28;20463;-55
2023/01/04 05:14:03;;;;;;;6.90;3.20;;;6.60;99.90;;;;;;5115015;28;20893;-55
2023/01/04 05:16:30;;;;;;;3.00;2.80;;;6.60;99.90;;;;;;5115989;28;20455;-55
2023/01/04 05:18:59;;;;;;;2.67;2.47;;;6.60;99.90;;;;;;5114123;28;20974;-56
2023/01/04 05:21:26;;;;;;;3.20;2.73;;;6.60;99.90;;;;;;5115407;28;21030;-56
2023/01/04 05:23:53;;;;;;;3.90;2.83;;;6.70;99.90;;;;;;5115595;28;20450;-56
2023/01/04 05:26:20;;;;;;;2.73;2.53;;;6.70;99.90;;;;;;5113566;28;20523;-55
2023/01/04 05:28:47;;;;;;;2.60;2.40;;;6.80;99.90;;;;;;5115202;28;20499;-56
2023/01/04 05:31:13;;;;;;;2.83;2.63;;;6.80;99.90;;;;;;5115491;28;20462;-55
2023/01/04 05:33:40;;;;;;;3.70;3.00;;;6.90;99.90;;;;;;5114002;28;20807;-55
2023/01/04 05:36:09;;;;;;;2.90;2.70;;;7.00;99.90;;;;;;5115619;28;20446;-55
2023/01/04 05:38:36;;;;;;;3.27;2.97;;;6.90;99.90;;;;;;5115660;28;20450;-56
2023/01/04 05:41:03;;;;;;;3.30;3.00;;;6.90;99.90;;;;;;5113691;28;20466;-56
2023/01/04 05:43:30;;;;;;;2.80;2.60;;;6.90;99.90;;;;;;5115455;28;20474;-56
2023/01/04 05:45:57;;;;;;;2.93;2.60;;;6.90;99.90;;;;;;5114731;28;20474;-56
2023/01/04 05:48:25;;;;;;;3.60;3.30;;;7.00;99.90;;;;;;5113508;28;20503;-56
2023/01/04 05:50:53;;;;;;;2.93;2.63;;;6.90;99.90;;;;;;5115155;28;20475;-56
2023/01/04 05:53:21;;;;;;;3.37;3.10;;;7.00;99.90;;;;;;5115467;28;20443;-56
2023/01/04 05:55:48;;;;;;;3.43;3.00;;;7.00;99.90;;;;;;5113074;28;20431;-56
2023/01/04 05:58:16;;;;;;;3.23;2.90;;;7.00;99.90;;;;;;5115148;28;20442;-55
2023/01/04 06:00:43;;;;;;;3.33;3.03;;;7.10;99.90;;;;;;5115007;28;20503;-55
2023/01/04 06:03:10;;;;;;;4.50;2.80;;;7.10;99.90;;;;;;5113161;28;20486;-55
2023/01/04 06:05:37;;;;;;;3.13;2.83;;;7.20;99.90;;;;;;5114698;28;20989;-55
2023/01/04 06:08:05;;;;;;;3.17;2.57;;;7.20;99.90;;;;;;5115045;28;20489;-55
2023/01/04 06:10:33;;;;;;;2.83;2.57;;;7.30;99.90;;;;;;5112763;28;20466;-55
2023/01/04 06:13:00;;;;;;;3.30;3.10;;;7.30;99.90;;;;;;5114498;28;20447;-56
2023/01/04 06:15:27;;;;;;;3.70;3.03;;;7.30;99.90;;;;;;5114674;28;20443;-54
2023/01/04 06:17:54;;;;;;;2.97;2.77;;;7.30;99.90;;;;;;5112904;28;20693;-55
2023/01/04 06:20:21;;;;;;;2.73;2.53;;;7.40;99.90;;;;;;5114151;28;20960;-55
2023/01/04 06:22:48;;;;;;;2.73;2.53;;;7.30;99.90;;;;;;5114403;28;20485;-55
2023/01/04 06:25:16;;;;;;;2.77;2.57;;;7.40;99.90;;;;;;5112408;28;20459;-55
2023/01/04 06:27:44;;;;;;;2.50;2.30;;;7.40;99.90;;;;;;5114339;28;20451;-54
2023/01/04 06:30:12;;;;;;;3.23;2.40;;;7.50;99.90;;;;;;5114542;28;20886;-55
2023/01/04 06:32:39;;;;;;;3.57;2.83;;;7.50;99.90;;;;;;5112260;28;20446;-54
2023/01/04 06:35:06;;;;;;;2.63;2.43;;;7.50;99.90;;;;;;5114628;28;20443;-55
2023/01/04 06:37:37;;;;;;;4.87;3.50;;;7.60;99.90;;;;;;5114521;28;20810;-55
2023/01/04 06:40:04;;;;;;;3.30;2.97;;;7.60;99.90;;;;;;5112209;28;20876;-56
2023/01/04 06:42:47;;;;;;;2.83;2.57;;;7.60;99.90;;;;;;5113984;28;20466;-56
2023/01/04 06:45:16;;;;;;;2.57;2.37;;;7.60;99.90;;;;;;5113105;28;20470;-55
2023/01/04 06:47:43;;;;;;;2.90;2.70;;;7.70;99.90;;;;;;5111824;28;20457;-56
2023/01/04 06:50:11;;;;;;;2.60;2.40;;;7.70;99.90;;;;;;5114296;28;20757;-56
2023/01/04 06:52:38;;;;;;;2.87;2.67;;;7.70;99.90;;;;;;5113944;28;20446;-56
2023/01/04 06:55:08;;;;;;;3.23;2.60;;;7.60;99.90;;;;;;5111875;28;20993;-55
2023/01/04 06:57:35;;;;;;;3.27;2.97;;;7.60;99.90;;;;;;5114072;28;20531;-55
2023/01/04 07:00:03;;;;;;;3.33;2.90;;;7.70;99.90;;;;;;5113871;28;20470;-56
2023/01/04 07:02:31;;;;;;;3.33;2.67;;;7.70;99.90;;;;;;5111988;28;20565;-56
2023/01/04 07:04:58;;;;;;;2.93;2.63;;;7.70;99.90;;;;;;5114048;28;20453;-56
2023/01/04 07:07:25;;;;;;;2.67;2.47;;;7.70;99.90;;;;;;5113288;28;20478;-56
2023/01/04 07:09:52;;;;;;;3.03;2.83;;;7.70;99.90;;;;;;5111949;28;20748;-55
2023/01/04 07:12:19;;;;;;;4.83;3.20;;;7.70;99.90;;;;;;5113428;28;20438;-56
2023/01/04 07:14:46;;;;;;;3.40;2.87;;;7.70;99.90;;;;;;5113689;28;20478;-56
2023/01/04 07:17:13;;;;;;;2.93;2.53;;;7.70;99.90;;;;;;5111855;28;20458;-56
2023/01/04 07:19:42;;;;;;;2.97;2.53;;;7.70;99.90;;;;;;5113363;28;20471;-55
2023/01/04 07:22:09;;;;;;;2.80;2.50;;;7.80;99.90;;;;;;5113520;28;20479;-56
2023/01/04 07:24:36;;;;;;;6.33;2.60;;;7.80;99.90;;;;;;5111275;28;20947;-56
2023/01/04 07:27:03;;;;;;;2.97;1.90;;;7.80;99.90;;;;;;5112882;28;20454;-55
2023/01/04 07:29:30;;;;;;;2.97;2.60;;;7.80;99.90;;;;;;5113124;28;20810;-55
2023/01/04 07:31:58;;;;;;;3.03;2.20;;;7.90;99.90;;;;;;5111007;28;20511;-55
2023/01/04 07:34:27;;;;;;;2.70;2.50;;;7.80;99.90;;;;;;5113380;28;20447;-55
2023/01/04 07:36:56;;;;;;;2.47;2.27;;;7.80;99.90;;;;;;5113420;28;20443;-55
2023/01/04 07:39:23;;;;;;;2.80;1.90;;;7.80;99.90;;;;;;5111289;28;20427;-54
2023/01/04 07:41:51;;;;;;;2.13;1.90;;;7.90;99.90;;;;;;5113039;28;20437;-54
2023/01/04 07:44:18;;;;;;;3.97;2.10;;;7.70;99.90;;;;;;5112892;28;20486;-54
2023/01/04 07:46:45;;;;;;;2.47;2.27;;;7.70;99.90;;;;;;5111314;28;20723;-54
2023/01/04 07:49:15;;;;;;;2.50;2.00;;;7.70;99.90;;;;;;5112711;28;20459;-54
2023/01/04 07:51:42;;;;;;;2.53;2.33;;;7.70;99.90;;;;;;5113092;28;20439;-55
2023/01/04 07:54:11;;;;;;;2.37;2.10;;;7.60;99.90;;;;;;5110967;28;20443;-55
2023/01/04 07:56:38;;;;;;;2.50;2.23;;;7.60;99.90;;;;;;5112803;28;20446;-55
2023/01/04 07:59:05;;;;;;;2.60;1.93;;;7.60;99.90;;;;;;5113077;28;20928;-55
2023/01/04 08:01:34;;;;;;;5.23;1.70;;;7.50;99.90;;;;;;5110946;28;21010;-55
2023/01/04 08:04:01;;;;;;;2.90;1.90;;;7.50;99.90;;;;;;5112437;28;20500;-55
2023/01/04 08:06:28;;;;;;;3.90;2.90;;;7.60;99.90;;;;;;5113095;28;20453;-56
2023/01/04 08:08:55;;;;;;;2.33;2.13;;;7.50;99.90;;;;;;5111255;28;20497;-55
2023/01/04 08:11:24;;;;;;;1.97;1.67;;;7.50;99.90;;;;;;5113009;28;20463;-54
2023/01/04 08:13:52;;;;;;;2.37;2.10;;;7.60;99.90;;;;;;5113033;28;20594;-55
2023/01/04 08:16:22;;;;;;;2.10;1.70;;;7.50;99.90;;;;;;5110976;28;20447;-55
2023/01/04 08:18:53;;;;;;;2.40;1.70;;;7.50;99.90;;;;;;5112731;28;20455;-55
2023/01/04 08:21:20;;;;;;;2.80;1.67;;;7.60;99.90;;;;;;5112801;28;20473;-55
2023/01/04 08:23:48;;;;;;;4.90;1.80;;;7.50;99.90;;;;;;5110705;28;20482;-55
2023/01/04 08:26:16;;;;;;;2.10;1.90;;;7.50;99.90;;;;;;5112156;28;20477;-55
2023/01/04 08:28:45;;;;;;;1.80;1.70;;;7.50;99.90;;;;;;5112710;28;20541;-56
2023/01/04 08:31:14;;;;;;;2.37;1.80;;;7.60;99.90;;;;;;5110342;28;20470;-55
2023/01/04 08:33:42;;;;;;;2.03;1.60;;;7.60;99.90;;;;;;5112913;28;20802;-54
2023/01/04 08:36:12;;;;;;;3.53;2.43;;;7.60;99.90;;;;;;5112559;28;20446;-54
2023/01/04 08:38:39;;;;;;;2.10;1.93;;;7.60;99.90;;;;;;5110348;28;20455;-55
2023/01/04 08:41:07;;;;;;;1.60;1.50;;;7.60;99.90;;;;;;5112524;28;20466;-55
2023/01/04 08:43:35;;;;;;;2.23;1.70;;;7.70;99.90;;;;;;5114841;28;21158;-55
2023/01/04 08:46:04;;;;;;;5.53;2.50;;;7.70;99.90;;;;;;5114397;28;20516;-54
2023/01/04 08:48:31;;;;;;;1.97;1.73;;;7.70;99.90;;;;;;5116359;28;20456;-54
2023/01/04 08:50:59;;;;;;;3.87;2.53;;;7.70;99.90;;;;;;5116552;28;20887;-56
2023/01/04 08:53:27;;;;;;;3.43;2.03;;;7.80;99.90;;;;;;5114209;28;20438;-54
2023/01/04 08:55:54;;;;;;;2.50;2.03;;;7.70;99.90;;;;;;5115774;28;20653;-55
2023/01/04 08:58:23;;;;;;;2.10;1.60;;;7.80;99.90;;;;;;5116042;28;20532;-54
2023/01/04 09:00:50;;;;;;;2.13;1.90;;;7.80;99.90;;;;;;5113979;28;20476;-54
2023/01/04 09:03:19;;;;;;;1.63;1.53;;;7.80;99.90;;;;;;5115975;28;20514;-54
2023/01/04 09:05:46;;;;;;;2.13;1.93;;;7.80;99.90;;;;;;5115629;28;20447;-55
2023/01/04 09:08:13;;;;;;;3.50;2.30;;;7.90;99.90;;;;;;5113988;28;20986;-55
2023/01/04 09:10:40;;;;;;;1.70;1.60;;;7.90;99.90;;;;;;5116045;28;20476;-55
2023/01/04 09:13:07;;;;;;;2.70;2.00;;;7.90;99.90;;;;;;5115526;28;20806;-54
2023/01/04 09:15:35;;;;;;;2.30;2.10;;;8.00;99.90;;;;;;5114246;28;20446;-55
2023/01/04 09:18:03;;;;;;;4.90;1.90;;;8.00;99.90;;;;;;5115723;28;20438;-54
2023/01/04 09:20:32;;;;;;;2.23;1.90;;;8.00;99.90;;;;;;5115424;28;20466;-54
2023/01/04 09:22:59;;;;;;;2.97;1.80;;;8.00;99.90;;;;;;5113637;28;20482;-56
2023/01/04 09:25:26;;;;;;;2.13;1.93;;;8.00;99.90;;;;;;5114818;28;20534;-55
2023/01/04 09:27:53;;;;;;;1.70;1.60;;;8.10;99.90;;;;;;5115266;28;20449;-54
2023/01/04 09:30:20;;;;;;;1.90;1.70;;;8.10;99.90;;;;;;5113373;28;20493;-54
2023/01/04 09:32:47;;;;;;;2.83;2.27;;;8.10;99.90;;;;;;5115278;28;20447;-56
2023/01/04 09:35:14;;;;;;;2.43;1.80;;;8.20;99.90;;;;;;5115359;28;20442;-54
2023/01/04 09:37:43;;;;;;;2.37;1.60;;;8.20;99.90;;;;;;5111878;28;20577;-55
2023/01/04 09:40:20;;;;;;;1.93;1.83;;;8.20;99.90;;;;;;5093812;28;20824;-55
2023/01/04 09:42:49;;;;;;;3.53;2.00;;;8.30;99.90;;;;;;5109801;28;20829;-55
2023/01/04 09:45:20;;;;;;;1.60;1.50;;;8.40;99.90;;;;;;5113369;28;20492;-55
2023/01/04 09:47:51;;;;;;;2.00;1.83;;;8.40;99.90;;;;;;5113088;28;20864;-54
2023/01/04 09:50:22;;;;;;;2.70;2.10;;;8.50;99.90;;;;;;5112430;28;20485;-55
2023/01/04 09:52:58;;;;;;;2.03;1.53;;;8.50;99.90;;;;;;5112528;28;20820;-55
2023/01/04 09:55:31;;;;;;;2.20;2.00;;;8.50;99.90;;;;;;5114301;28;20437;-55
2023/01/04 09:58:03;;;;;;;2.23;1.80;;;8.50;99.90;;;;;;5115182;28;20451;-55
2023/01/04 10:00:35;;;;;;;1.57;1.47;;;8.60;99.90;;;;;;5112621;28;20518;-55
2023/01/04 10:03:10;;;;;;;2.23;1.70;;;8.60;99.90;;;;;;5112831;28;20964;-56
2023/01/04 10:05:37;;;;;;;2.03;1.70;;;8.70;99.90;;;;;;5115291;28;20521;-56
2023/01/04 10:08:14;;;;;;;4.50;1.70;;;8.70;99.90;;;;;;5111970;28;20442;-56
2023/01/04 10:10:48;;;;;;;3.30;1.83;;;8.70;99.90;;;;;;5115023;28;20960;-56
2023/01/04 10:13:26;;;;;;;2.17;1.87;;;8.70;99.90;;;;;;5113719;28;20464;-55
2023/01/04 10:16:03;;;;;;;1.73;1.50;;;8.60;99.90;;;;;;5112791;28;20431;-55
2023/01/04 10:18:40;;;;;;;4.30;2.00;;;8.70;99.90;;;;;;5114867;28;20832;-56
2023/01/04 10:21:33;;;;;;;3.80;1.80;;;8.70;99.90;;;;;;5113443;28;20458;-56
2023/01/04 10:24:23;;;;;;;2.70;1.97;;;8.70;99.90;;;;;;5103625;28;20516;-55
2023/01/04 10:26:56;;;;;;;5.83;2.53;;;8.70;99.90;;;;;;5114497;28;20510;-56
2023/01/04 10:29:39;;;;;;;3.07;1.60;;;8.70;99.90;;;;;;5112152;28;20438;-55
2023/01/04 10:32:16;;;;;;;3.60;1.70;;;8.80;99.90;;;;;;5112916;28;20948;-56
2023/01/04 10:34:45;;;;;;;1.90;1.63;;;8.80;99.90;;;;;;5114613;28;20782;-56
2023/01/04 10:37:14;;;;;;;2.00;1.60;;;8.90;99.90;;;;;;5110242;28;20509;-56
2023/01/04 10:39:44;;;;;;;1.87;1.77;;;8.90;99.90;;;;;;5111488;28;20486;-56
2023/01/04 10:42:18;;;;;;;2.63;1.70;;;9.00;99.90;;;;;;5113603;28;20521;-55
2023/01/04 10:44:57;;;;;;;1.80;1.70;;;8.90;99.90;;;;;;5108670;28;20488;-55
2023/01/04 10:47:33;;;;;;;2.53;1.70;;;9.00;99.90;;;;;;5114185;28;20502;-55
2023/01/04 10:50:08;;;;;;;2.90;1.43;;;9.10;99.90;;;;;;5114045;28;20472;-56
2023/01/04 10:52:40;;;;;;;2.07;1.80;;;9.10;99.90;;;;;;5091919;28;20432;-55
2023/01/04 10:55:16;;;;;;;1.50;1.40;;;9.10;99.90;;;;;;5110919;28;20490;-55
2023/01/04 10:57:49;;;;;;;1.93;1.63;;;9.20;99.90;;;;;;5113178;28;20445;-55
2023/01/04 11:00:21;;;;;;;2.53;1.90;;;9.30;99.90;;;;;;5097828;28;20466;-55
2023/01/04 11:02:55;;;;;;;1.60;1.50;;;9.20;99.90;;;;;;5110629;28;20458;-55
2023/01/04 11:05:27;;;;;;;1.93;1.83;;;9.30;99.90;;;;;;5113451;28;20433;-56
2023/01/04 11:07:59;;;;;;;1.67;1.57;;;9.40;99.90;;;;;;5111369;28;20844;-56
2023/01/04 11:10:31;;;;;;;2.27;1.50;;;9.40;99.90;;;;;;5112522;28;20462;-56
2023/01/04 11:12:58;;;;;;;1.90;1.67;;;9.40;99.90;;;;;;5113687;28;20435;-55
2023/01/04 11:15:25;;;;;;;1.90;1.50;;;9.40;99.90;;;;;;5112183;28;20442;-56
2023/01/04 11:17:53;;;;;;;2.13;2.03;;;9.40;99.90;;;;;;5113092;28;20979;-55
2023/01/04 11:20:20;;;;;;;1.90;1.80;;;9.40;99.90;;;;;;5112080;28;20462;-57
2023/01/04 11:22:54;;;;;;;3.27;1.80;;;9.40;99.90;;;;;;5109985;28;20924;-55
2023/01/04 11:25:23;;;;;;;4.80;2.73;;;9.40;99.90;;;;;;5112456;28;20496;-57
2023/01/04 11:27:56;;;;;;;2.33;1.73;;;9.40;99.90;;;;;;5110726;28;20834;-56
2023/01/04 11:30:25;;;;;;;1.80;1.50;;;9.50;99.90;;;;;;5097172;28;20481;-55
2023/01/04 11:32:58;;;;;;;1.73;1.63;;;9.50;99.90;;;;;;5110564;28;20445;-55
2023/01/04 11:35:40;;;;;;;2.40;1.70;;;9.50;99.90;;;;;;5109175;28;20454;-56
2023/01/04 11:38:16;;;;;;;2.03;1.57;;;9.50;99.90;;;;;;5110755;28;20468;-55
2023/01/04 11:40:55;;;;;;;2.70;2.50;;;9.50;99.90;;;;;;5113231;28;20454;-55
2023/01/04 11:43:27;;;;;;;1.73;1.63;;;9.50;99.90;;;;;;5111093;28;20553;-55
2023/01/04 11:46:03;;;;;;;2.03;1.60;;;9.60;99.90;;;;;;5111119;28;20482;-55
2023/01/04 11:48:36;;;;;;;1.80;1.60;;;9.60;99.90;;;;;;5113353;28;20441;-55
2023/01/04 11:51:04;;;;;;;2.00;1.80;;;9.60;99.90;;;;;;5110016;28;20528;-55
2023/01/04 11:53:33;;;;;;;1.60;1.50;;;9.60;99.90;;;;;;5100074;28;20454;-55
2023/01/04 11:56:15;;;;;;;2.43;1.50;;;9.70;99.90;;;;;;5112443;28;20458;-55
2023/01/04 11:59:02;;;;;;;4.77;1.67;;;9.70;99.90;;;;;;5110426;28;20477;-56
2023/01/04 12:01:29;;;;;;;2.70;1.90;;;9.70;99.90;;;;;;5111682;28;20501;-55
2023/01/04 12:03:56;;;;;;;1.70;1.60;;;9.80;99.90;;;;;;5112763;28;20484;-55
2023/01/04 12:06:33;;;;;;;1.83;1.50;;;9.80;99.90;;;;;;5110669;28;20446;-56
2023/01/04 12:09:01;;;;;;;1.93;1.70;;;9.80;99.90;;;;;;5111572;28;20468;-55
2023/01/04 12:11:30;;;;;;;3.20;1.67;;;9.80;99.90;;;;;;5112691;28;20515;-55
2023/01/04 12:14:00;;;;;;;3.33;1.80;;;9.80;99.90;;;;;;5110652;28;20447;-55
2023/01/04 12:16:42;;;;;;;4.33;2.00;;;9.80;99.90;;;;;;5111908;28;20451;-55
2023/01/04 12:19:14;;;;;;;3.10;2.00;;;9.90;99.90;;;;;;5115724;28;20462;-56
2023/01/04 12:21:44;;;;;;;2.73;1.70;;;9.80;99.90;;;;;;5114591;28;20469;-56
2023/01/04 12:24:17;;;;;;;2.47;1.80;;;9.90;99.90;;;;;;5116631;28;20480;-55
2023/01/04 12:26:45;;;;;;;1.97;1.80;;;10.00;99.90;;;;;;5116472;28;20432;-55
2023/01/04 12:29:45;;;;;;;2.80;1.83;;;10.10;99.90;;;;;;5113602;28;20963;-55
2023/01/04 12:32:41;;;;;;;3.00;1.80;;;10.10;99.90;;;;;;5058915;28;20458;-56
2023/01/04 12:35:50;;;;;;;3.97;1.70;;;10.20;99.90;;;;;;5094157;28;20443;-55
2023/01/04 12:38:57;;;;;;;2.90;1.67;;;10.20;99.90;;;;;;5074906;28;20455;-55
2023/01/04 12:41:59;;;;;;;1.70;1.60;;;10.20;99.90;;;;;;5116789;28;20470;-55
2023/01/04 12:45:12;;;;;;;2.90;1.70;;;10.20;99.90;;;;;;5109815;28;20517;-55
2023/01/04 12:50:28;;;;;;;2.90;1.80;;;10.20;99.90;;;;;;5114168;28;21009;-55
2023/01/04 12:52:56;;;;;;;4.73;2.30;;;10.30;99.90;;;;;;5114878;28;20549;-56
2023/01/04 12:55:51;;;;;;;4.63;2.10;;;10.30;99.90;;;;;;5115536;28;20777;-56
2023/01/04 12:58:55;;;;;;;2.33;1.50;;;10.30;99.90;;;;;;5113642;28;20431;-55
2023/01/04 13:01:25;;;;;;;9.13;2.13;;;10.40;99.90;;;;;;5116117;28;20812;-56
2023/01/04 13:03:58;;;;;;;3.17;1.70;;;10.40;99.90;;;;;;5115413;28;20488;-55
2023/01/04 13:06:28;;;;;;;2.10;1.90;;;10.30;99.90;;;;;;5109830;28;20823;-56
2023/01/04 13:08:56;;;;;;;2.10;1.90;;;10.40;99.90;;;;;;5116031;28;20449;-55
2023/01/04 13:11:42;;;;;;;2.23;1.80;;;10.40;99.90;;;;;;5115218;28;20466;-55
2023/01/04 13:14:14;;;;;;;2.70;1.53;;;10.50;99.90;;;;;;5109413;28;20470;-56
2023/01/04 13:16:45;;;;;;;3.17;1.70;;;10.50;99.90;;;;;;5114951;28;20439;-56
2023/01/04 13:19:21;;;;;;;3.60;1.97;;;10.50;99.90;;;;;;5114986;28;20463;-55
2023/01/04 13:21:51;;;;;;;1.80;1.67;;;10.60;99.90;;;;;;5113930;28;20502;-56
2023/01/04 13:24:22;;;;;;;1.87;1.77;;;10.60;99.90;;;;;;5115501;28;20500;-56
2023/01/04 13:26:50;;;;;;;2.63;1.80;;;10.60;99.90;;;;;;5112887;28;20427;-57
2023/01/04 13:29:20;;;;;;;5.40;1.90;;;10.60;99.90;;;;;;5114466;28;20450;-56
2023/01/04 13:31:51;;;;;;;1.90;1.80;;;10.60;99.90;;;;;;5113493;28;20512;-56
2023/01/04 13:34:23;;;;;;;1.60;1.50;;;10.70;99.90;;;;;;5113072;28;20435;-57
2023/01/04 13:36:55;;;;;;;1.77;1.67;;;10.70;99.90;;;;;;5114293;28;20674;-56
2023/01/04 13:39:23;;;;;;;2.60;2.07;;;10.70;99.90;;;;;;5104675;28;20443;-56
2023/01/04 13:41:51;;;;;;;2.27;1.70;;;10.70;99.90;;;;;;5112247;28;20454;-55
2023/01/04 13:44:35;;;;;;;2.50;1.30;;;10.70;99.90;;;;;;5115329;28;20497;-55
2023/01/04 13:47:02;;;;;;;1.97;1.40;;;10.70;99.90;;;;;;5115135;28;20430;-55
2023/01/04 13:49:31;;;;;;;1.57;1.33;;;10.80;99.90;;;;;;5113315;28;20450;-56
2023/01/04 13:52:13;;;;;;;1.80;1.70;;;10.80;99.90;;;;;;5114300;28;20586;-55
2023/01/04 13:54:41;;;;;;;1.90;1.60;;;10.80;99.90;;;;;;5115094;28;20498;-56
2023/01/04 13:57:11;;;;;;;1.93;1.73;;;10.80;99.90;;;;;;5112995;28;20959;-55
2023/01/04 13:59:38;;;;;;;1.63;1.53;;;10.80;99.90;;;;;;5114894;28;20462;-55
2023/01/04 14:02:17;;;;;;;3.10;1.40;;;10.90;99.90;;;;;;5111840;28;20451;-56